Time;durP1;ratioP1;P1;durP2;ratioP2;P2;SDS_P1;SDS_P2;PMS_P1;PMS_P2;Temp;Humidity;BMP_temperature;BMP_pressure;BME280_temperature;BME280_humidity;BME280_pressure;Samples;Min_cycle;Max_cycle;Signal;HPM_P1;HPM_P2
2021/08/22 00:00:22;;;;;;;106.37;101.77;;;17.60;99.90;;;;;;6097639;23;20435;-85
2021/08/22 00:02:51;;;;;;;122.50;117.53;;;17.60;99.90;;;;;;6097741;23;20409;-88
2021/08/22 00:05:18;;;;;;;133.67;127.80;;;17.50;99.90;;;;;;6107422;23;20444;-86
2021/08/22 00:07:45;;;;;;;145.27;139.30;;;17.50;99.90;;;;;;6107476;23;20502;-88
2021/08/22 00:10:12;;;;;;;152.13;145.53;;;17.50;99.90;;;;;;6096725;23;20411;-86
2021/08/22 00:12:39;;;;;;;140.80;134.80;;;17.30;99.90;;;;;;6098001;23;20439;-87
2021/08/22 00:15:09;;;;;;;137.33;131.33;;;17.30;99.90;;;;;;6107666;23;20419;-88
2021/08/22 00:17:36;;;;;;;147.73;141.17;;;17.20;99.90;;;;;;6107736;23;20446;-87
2021/08/22 00:20:04;;;;;;;154.23;147.27;;;17.10;99.90;;;;;;6097894;23;20764;-88
2021/08/22 00:22:31;;;;;;;161.10;153.80;;;17.00;99.90;;;;;;6057183;23;20506;-88
2021/08/22 00:24:58;;;;;;;162.27;155.00;;;16.90;99.90;;;;;;6106333;23;20408;-87
2021/08/22 00:27:25;;;;;;;179.63;172.33;;;16.80;99.90;;;;;;6097882;23;20408;-85
2021/08/22 00:29:52;;;;;;;180.07;172.80;;;16.70;99.90;;;;;;6097669;23;20471;-88
2021/08/22 00:32:20;;;;;;;180.20;172.50;;;16.70;99.90;;;;;;6097844;23;20495;-88
2021/08/22 00:34:47;;;;;;;171.70;164.33;;;16.70;99.90;;;;;;6097464;23;20510;-86
2021/08/22 00:37:14;;;;;;;155.50;149.00;;;16.70;99.90;;;;;;6097519;23;20442;-85
2021/08/22 00:39:41;;;;;;;166.43;159.07;;;16.70;99.90;;;;;;6106162;23;20807;-87
2021/08/22 00:42:08;;;;;;;166.07;158.97;;;16.60;99.90;;;;;;6107126;23;20478;-87
2021/08/22 00:44:35;;;;;;;170.87;163.10;;;16.50;99.90;;;;;;6097694;23;20407;-85
2021/08/22 00:47:03;;;;;;;170.87;163.40;;;16.40;99.90;;;;;;6097755;23;20404;-86
2021/08/22 00:49:31;;;;;;;177.90;170.23;;;16.20;99.90;;;;;;6097756;23;20462;-86
2021/08/22 00:51:59;;;;;;;183.00;174.90;;;16.30;99.90;;;;;;6097410;23;20407;-87
2021/08/22 00:54:26;;;;;;;193.00;184.70;;;16.20;99.90;;;;;;6096194;23;20408;-86
2021/08/22 00:56:54;;;;;;;196.80;188.50;;;16.10;99.90;;;;;;6097083;23;20620;-87
2021/08/22 00:59:22;;;;;;;196.80;188.50;;;16.10;99.90;;;;;;6097742;23;20404;-87
2021/08/22 01:01:51;;;;;;;209.60;200.80;;;16.10;99.90;;;;;;6097351;23;20435;-82
2021/08/22 01:04:20;;;;;;;206.73;198.03;;;16.10;99.90;;;;;;6106908;23;20447;-84
2021/08/22 01:06:59;;;;;;;215.63;206.43;;;16.00;99.90;;;;;;6106885;23;20419;-86
2021/08/22 01:09:31;;;;;;;218.13;208.83;;;15.90;99.90;;;;;;6105489;23;20412;-87
2021/08/22 01:12:02;;;;;;;226.10;216.33;;;15.90;99.90;;;;;;6097519;23;20462;-86
2021/08/22 01:14:32;;;;;;;232.63;222.80;;;15.80;99.90;;;;;;6097563;23;20454;-86
2021/08/22 01:17:01;;;;;;;235.73;225.73;;;15.80;99.90;;;;;;6097535;23;20412;-85
2021/08/22 01:19:41;;;;;;;237.63;227.70;;;15.70;99.90;;;;;;6097477;23;20487;-84
2021/08/22 01:22:10;;;;;;;249.30;238.77;;;15.70;99.90;;;;;;6096861;23;20435;-87
2021/08/22 01:24:40;;;;;;;257.40;246.33;;;15.80;99.90;;;;;;6105288;23;20427;-86
2021/08/22 01:27:08;;;;;;;252.60;241.83;;;15.80;99.90;;;;;;6106722;23;20423;-85
2021/08/22 01:29:40;;;;;;;264.00;252.77;;;15.90;99.90;;;;;;6097347;23;20488;-85
2021/08/22 01:32:10;;;;;;;271.50;259.77;;;15.90;99.90;;;;;;6096938;23;20408;-84
2021/08/22 01:34:40;;;;;;;280.70;268.67;;;16.00;99.90;;;;;;6097199;23;20794;-86
2021/08/22 01:37:07;;;;;;;283.00;271.13;;;16.10;99.90;;;;;;6097246;23;20404;-87
2021/08/22 01:39:37;;;;;;;298.53;286.00;;;16.10;99.90;;;;;;6105481;23;20502;-86
2021/08/22 01:42:05;;;;;;;307.80;294.47;;;16.20;99.90;;;;;;6107024;23;20945;-87
2021/08/22 01:44:32;;;;;;;313.57;299.97;;;16.20;99.90;;;;;;6096814;23;20408;-88
2021/08/22 01:47:00;;;;;;;315.33;301.27;;;16.20;99.90;;;;;;6096593;23;20959;-86
2021/08/22 01:49:27;;;;;;;325.50;311.57;;;16.30;99.90;;;;;;6097088;23;20811;-86
2021/08/22 01:51:56;;;;;;;325.17;311.17;;;16.30;99.90;;;;;;6096814;23;20495;-86
2021/08/22 01:54:22;;;;;;;325.30;310.90;;;16.40;99.90;;;;;;6095711;23;20435;-85
2021/08/22 01:56:49;;;;;;;329.50;314.60;;;16.40;99.90;;;;;;6106983;23;20438;-86
2021/08/22 01:59:16;;;;;;;326.80;312.10;;;16.50;99.90;;;;;;6106505;23;20490;-87
2021/08/22 02:01:43;;;;;;;332.80;318.23;;;16.60;99.90;;;;;;6096819;23;20519;-85
2021/08/22 02:04:16;;;;;;;323.73;309.33;;;16.80;99.90;;;;;;6096886;23;20450;-87
2021/08/22 02:06:47;;;;;;;330.73;315.60;;;16.80;99.90;;;;;;6096793;23;20932;-86
2021/08/22 02:09:20;;;;;;;326.40;311.37;;;17.00;99.90;;;;;;6095452;23;20932;-86
2021/08/22 02:11:50;;;;;;;325.23;310.10;;;17.00;99.90;;;;;;6097010;23;20436;-87
2021/08/22 02:14:20;;;;;;;319.83;305.13;;;17.10;99.90;;;;;;6096738;23;20404;-85
2021/08/22 02:16:50;;;;;;;319.93;305.13;;;17.10;99.90;;;;;;6096729;23;20443;-85
2021/08/22 02:19:18;;;;;;;321.30;306.20;;;17.20;99.90;;;;;;6097012;23;20412;-86
2021/08/22 02:21:46;;;;;;;323.30;308.40;;;17.30;99.90;;;;;;6096363;23;20467;-85
2021/08/22 02:24:13;;;;;;;309.90;294.90;;;17.40;99.90;;;;;;6104881;23;20415;-84
2021/08/22 02:26:42;;;;;;;307.17;292.77;;;17.50;99.90;;;;;;6106797;23;20446;-86
2021/08/22 02:29:09;;;;;;;298.13;283.37;;;17.50;99.90;;;;;;6096979;23;20802;-85
2021/08/22 02:31:37;;;;;;;283.33;269.97;;;17.60;99.90;;;;;;6097057;23;20439;-85
2021/08/22 02:34:03;;;;;;;275.57;262.47;;;17.60;99.90;;;;;;6096696;23;20407;-85
2021/08/22 02:36:30;;;;;;;270.03;256.60;;;17.60;99.90;;;;;;6097028;23;20408;-84
2021/08/22 02:38:58;;;;;;;257.97;245.47;;;17.60;99.90;;;;;;6104939;23;20419;-85
2021/08/22 02:41:25;;;;;;;242.37;230.87;;;17.70;99.90;;;;;;6096868;23;20464;-86
2021/08/22 02:43:54;;;;;;;234.57;223.67;;;17.70;99.90;;;;;;6096610;23;20435;-86
2021/08/22 02:46:21;;;;;;;228.80;217.50;;;17.70;99.90;;;;;;6097034;23;20467;-85
2021/08/22 02:48:48;;;;;;;215.73;205.37;;;17.70;99.90;;;;;;6106436;23;20446;-84
2021/08/22 02:51:15;;;;;;;206.37;196.40;;;17.70;99.90;;;;;;6106658;23;20783;-85
2021/08/22 02:53:42;;;;;;;194.67;185.20;;;17.70;99.90;;;;;;6094964;23;20900;-83
2021/08/22 02:56:09;;;;;;;182.70;173.90;;;17.70;99.90;;;;;;6096897;23;20408;-84
2021/08/22 02:58:36;;;;;;;182.57;173.60;;;17.80;99.90;;;;;;6096903;23;20436;-83
2021/08/22 03:01:04;;;;;;;174.07;165.37;;;17.80;99.90;;;;;;6096791;23;20400;-84
2021/08/22 03:03:31;;;;;;;174.30;165.27;;;17.80;99.90;;;;;;6096390;23;20488;-84
2021/08/22 03:05:58;;;;;;;169.47;160.77;;;17.80;99.90;;;;;;6096814;23;20443;-84
2021/08/22 03:08:24;;;;;;;157.70;149.70;;;17.80;99.90;;;;;;6095389;23;20535;-85
2021/08/22 03:10:51;;;;;;;138.67;131.77;;;17.80;99.90;;;;;;6106278;23;20446;-83
2021/08/22 03:13:18;;;;;;;131.83;124.80;;;17.90;99.90;;;;;;6096491;23;20467;-84
2021/08/22 03:15:45;;;;;;;122.40;116.30;;;17.80;99.90;;;;;;6106312;23;20507;-84
2021/08/22 03:18:13;;;;;;;119.17;113.27;;;17.90;99.90;;;;;;6096347;23;20411;-84
2021/08/22 03:20:40;;;;;;;123.10;117.10;;;17.90;99.90;;;;;;6096413;23;20499;-85
2021/08/22 03:23:07;;;;;;;117.00;111.10;;;17.90;99.90;;;;;;6104623;23;20447;-82
2021/08/22 03:25:34;;;;;;;109.93;104.30;;;17.80;99.90;;;;;;6096494;23;20483;-84
2021/08/22 03:28:01;;;;;;;116.83;111.17;;;17.80;99.90;;;;;;6096796;23;20782;-84
2021/08/22 03:30:28;;;;;;;128.27;121.97;;;17.80;99.90;;;;;;6096294;23;20396;-84
2021/08/22 03:32:56;;;;;;;131.53;124.70;;;17.70;99.90;;;;;;6098311;23;20463;-84
2021/08/22 03:35:24;;;;;;;133.17;126.37;;;17.70;99.90;;;;;;6108131;23;20407;-85
2021/08/22 03:37:51;;;;;;;136.60;129.57;;;17.70;99.90;;;;;;6107889;23;20419;-85
2021/08/22 03:40:18;;;;;;;135.30;128.37;;;17.70;99.90;;;;;;6106846;23;20431;-84
2021/08/22 03:42:45;;;;;;;141.30;134.20;;;17.70;99.90;;;;;;6108039;23;20549;-84
2021/08/22 03:45:12;;;;;;;143.73;136.30;;;17.70;99.90;;;;;;6098398;23;20403;-85
2021/08/22 03:47:39;;;;;;;142.40;135.23;;;17.70;99.90;;;;;;6107699;23;20414;-85
2021/08/22 03:50:07;;;;;;;142.30;134.70;;;17.70;99.90;;;;;;6107902;23;20444;-85
2021/08/22 03:52:35;;;;;;;139.53;132.50;;;17.70;99.90;;;;;;6098334;23;20426;-85
2021/08/22 03:55:03;;;;;;;138.17;131.13;;;17.70;99.90;;;;;;6096906;23;20435;-84
2021/08/22 03:57:30;;;;;;;139.13;131.83;;;17.70;99.90;;;;;;6098258;23;20436;-84
2021/08/22 03:59:56;;;;;;;138.77;131.67;;;17.70;99.90;;;;;;6107879;23;20423;-85
2021/08/22 04:02:23;;;;;;;146.20;138.40;;;17.70;99.90;;;;;;6107304;23;20963;-85
2021/08/22 04:04:51;;;;;;;144.60;136.90;;;17.70;99.90;;;;;;6097725;23;20994;-83
2021/08/22 04:07:17;;;;;;;143.70;135.67;;;17.70;99.90;;;;;;6098167;23;20459;-85
2021/08/22 04:09:46;;;;;;;135.47;128.17;;;17.70;99.90;;;;;;6106291;23;20419;-86
2021/08/22 04:12:13;;;;;;;140.00;132.30;;;17.70;99.90;;;;;;6107923;23;20419;-85
2021/08/22 04:14:40;;;;;;;134.13;126.97;;;17.60;99.90;;;;;;6107804;23;20412;-86
2021/08/22 04:17:07;;;;;;;134.20;126.67;;;17.60;99.90;;;;;;6097526;23;20431;-85
2021/08/22 04:19:34;;;;;;;135.70;127.30;;;17.60;99.90;;;;;;6107775;23;20450;-84
2021/08/22 04:22:01;;;;;;;127.43;120.10;;;17.60;99.90;;;;;;6097620;23;20460;-84
2021/08/22 04:24:29;;;;;;;123.00;116.13;;;17.50;99.90;;;;;;6096807;23;20404;-86
2021/08/22 04:26:57;;;;;;;123.87;116.90;;;17.50;99.90;;;;;;6107253;23;20416;-85
2021/08/22 04:29:24;;;;;;;121.47;114.20;;;17.50;99.90;;;;;;6097834;23;20482;-83
2021/08/22 04:31:54;;;;;;;118.33;111.00;;;17.50;99.90;;;;;;6107458;23;20408;-85
2021/08/22 04:34:21;;;;;;;112.57;105.73;;;17.50;99.90;;;;;;6097891;23;20405;-86
2021/08/22 04:36:48;;;;;;;103.83;97.90;;;17.50;99.90;;;;;;6107560;23;20435;-82
2021/08/22 04:39:16;;;;;;;97.50;91.10;;;17.50;99.90;;;;;;6096630;23;20396;-86
2021/08/22 04:41:58;;;;;;;92.73;86.97;;;17.50;99.90;;;;;;6097693;23;20729;-84
2021/08/22 04:44:26;;;;;;;93.63;87.30;;;17.40;99.90;;;;;;6097344;23;20404;-85
2021/08/22 04:46:53;;;;;;;99.40;93.20;;;17.40;99.90;;;;;;6107691;23;20396;-83
2021/08/22 04:49:20;;;;;;;100.37;94.37;;;17.30;99.90;;;;;;6097805;23;20435;-87
2021/08/22 04:51:46;;;;;;;97.43;91.13;;;17.30;99.90;;;;;;6097765;23;20414;-88
2021/08/22 04:54:13;;;;;;;103.10;96.70;;;17.30;99.90;;;;;;6095577;23;20975;-87
2021/08/22 04:56:41;;;;;;;103.20;96.57;;;17.30;99.90;;;;;;6106953;23;20411;-82
2021/08/22 04:59:08;;;;;;;101.30;95.20;;;17.20;99.90;;;;;;6097284;23;20399;-85
2021/08/22 05:01:36;;;;;;;102.63;96.27;;;17.20;99.90;;;;;;6097579;23;20406;-84
2021/08/22 05:04:03;;;;;;;106.33;100.17;;;17.30;99.90;;;;;;6106806;23;21016;-86
2021/08/22 05:06:30;;;;;;;97.90;92.30;;;17.20;99.90;;;;;;6097506;23;20729;-88
2021/08/22 05:08:56;;;;;;;93.67;88.10;;;17.30;99.90;;;;;;6096097;23;20511;-86
2021/08/22 05:11:23;;;;;;;91.43;85.80;;;17.20;99.90;;;;;;6097353;23;20415;-84
2021/08/22 05:13:50;;;;;;;95.47;89.90;;;17.20;99.90;;;;;;6097414;23;20407;-80
2021/08/22 05:16:17;;;;;;;102.53;96.20;;;17.10;99.90;;;;;;6106949;23;20896;-85
2021/08/22 05:18:45;;;;;;;107.23;100.53;;;17.20;99.90;;;;;;6107289;23;20892;-84
2021/08/22 05:21:12;;;;;;;102.73;96.37;;;17.30;99.90;;;;;;6097500;23;20733;-87
2021/08/22 05:23:39;;;;;;;89.97;84.17;;;17.30;99.90;;;;;;6096214;23;20443;-87
2021/08/22 05:26:06;;;;;;;88.77;83.47;;;17.40;99.90;;;;;;6097297;23;20443;-87
2021/08/22 05:28:32;;;;;;;86.20;80.57;;;17.50;99.90;;;;;;6097251;23;20491;-84
2021/08/22 05:30:59;;;;;;;84.53;79.87;;;17.60;99.90;;;;;;6107142;23;20443;-86
2021/08/22 05:33:26;;;;;;;81.70;76.77;;;17.60;99.90;;;;;;6097368;23;20411;-87
2021/08/22 05:35:55;;;;;;;73.33;68.63;;;17.60;99.90;;;;;;6097316;23;20443;-90
2021/08/22 05:38:21;;;;;;;67.97;63.57;;;17.60;99.90;;;;;;6095929;23;20415;-86
2021/08/22 05:40:48;;;;;;;65.50;61.37;;;17.70;99.90;;;;;;6096863;23;20400;-87
2021/08/22 05:43:15;;;;;;;70.87;65.03;;;17.60;99.90;;;;;;6096769;23;21026;-86
2021/08/22 05:45:42;;;;;;;67.93;63.67;;;17.60;99.90;;;;;;6097336;23;20800;-85
2021/08/22 05:48:09;;;;;;;70.50;65.23;;;17.70;99.90;;;;;;6107037;23;20411;-87
2021/08/22 05:50:36;;;;;;;70.27;66.17;;;17.60;99.90;;;;;;6107035;23;20403;-88
2021/08/22 05:53:04;;;;;;;76.23;71.37;;;17.60;99.90;;;;;;6106393;23;20482;-87
2021/08/22 05:55:31;;;;;;;75.73;70.73;;;17.60;99.90;;;;;;6106132;23;20495;-88
2021/08/22 05:57:58;;;;;;;82.30;76.50;;;17.60;99.90;;;;;;6097137;23;20439;-85
2021/08/22 06:00:25;;;;;;;75.27;70.57;;;17.70;99.90;;;;;;6106840;23;20745;-89
2021/08/22 06:02:51;;;;;;;73.17;68.30;;;17.80;99.90;;;;;;6096857;23;20522;-88
2021/08/22 06:05:18;;;;;;;58.87;54.57;;;18.00;99.90;;;;;;6096786;23;20436;-90
2021/08/22 06:07:45;;;;;;;54.17;50.20;;;18.00;99.90;;;;;;6096866;23;20404;-87
2021/08/22 06:10:13;;;;;;;49.17;45.77;;;18.10;99.90;;;;;;6105467;23;20408;-90
2021/08/22 06:12:40;;;;;;;54.27;50.27;;;18.30;99.90;;;;;;6106845;23;20495;-86
2021/08/22 06:15:11;;;;;;;51.50;47.60;;;18.40;99.90;;;;;;6106689;23;20728;-89
2021/08/22 06:17:38;;;;;;;45.30;41.70;;;18.40;99.90;;;;;;6106402;23;20423;-87
2021/08/22 06:20:06;;;;;;;38.63;35.37;;;18.50;99.90;;;;;;6106671;23;20435;-89
2021/08/22 06:22:33;;;;;;;39.13;36.00;;;18.40;99.90;;;;;;6096593;23;20441;-88
2021/08/22 06:25:00;;;;;;;41.60;38.30;;;18.60;99.10;;;;;;6105120;23;20528;-86
2021/08/22 06:27:32;;;;;;;36.87;34.00;;;18.70;98.70;;;;;;6106114;23;20827;-87
2021/08/22 06:30:00;;;;;;;33.27;30.40;;;18.90;97.40;;;;;;6106451;23;20801;-87
2021/08/22 06:32:27;;;;;;;22.03;19.63;;;19.10;96.20;;;;;;6106618;23;20426;-89
2021/08/22 06:34:53;;;;;;;19.87;17.77;;;19.10;93.00;;;;;;6106552;23;20411;-90
2021/08/22 06:37:22;;;;;;;22.10;19.90;;;19.20;91.50;;;;;;6096787;23;20439;-91
2021/08/22 06:39:49;;;;;;;21.17;16.93;;;19.30;91.70;;;;;;6095058;23;20442;-92
2021/08/22 06:42:16;;;;;;;18.57;16.10;;;19.30;90.00;;;;;;6106649;23;20412;-94
2021/08/22 06:44:45;;;;;;;18.63;14.87;;;19.50;88.80;;;;;;6097119;23;20435;-91
2021/08/22 06:47:11;;;;;;;22.70;14.17;;;19.70;86.70;;;;;;6106733;23;20459;-85
2021/08/22 06:49:39;;;;;;;17.00;13.33;;;19.70;85.80;;;;;;6096526;23;20411;-89
2021/08/22 06:52:07;;;;;;;24.07;19.80;;;19.50;87.10;;;;;;6106788;23;20408;-89
2021/08/22 06:54:35;;;;;;;20.60;15.90;;;19.40;90.50;;;;;;6105490;23;20408;-81
2021/08/22 06:57:03;;;;;;;18.80;16.57;;;19.30;88.30;;;;;;6106643;23;20479;-89
2021/08/22 06:59:30;;;;;;;25.07;19.50;;;19.20;90.60;;;;;;6106270;23;20498;-85
2021/08/22 07:01:58;;;;;;;35.07;29.37;;;19.30;90.20;;;;;;6096141;23;20408;-87
2021/08/22 07:04:25;;;;;;;27.27;21.57;;;19.60;90.20;;;;;;6096441;23;20533;-89
2021/08/22 07:06:52;;;;;;;26.77;19.00;;;19.60;90.10;;;;;;6107149;23;20412;-88
2021/08/22 07:09:25;;;;;;;16.73;13.63;;;19.60;87.50;;;;;;6107263;23;20415;-88
2021/08/22 07:11:51;;;;;;;15.40;12.10;;;19.40;85.60;;;;;;6108399;23;20463;-90
2021/08/22 07:14:18;;;;;;;16.13;14.47;;;19.20;85.40;;;;;;6107937;23;20387;-87
2021/08/22 07:16:45;;;;;;;20.70;17.33;;;19.10;90.00;;;;;;6098508;23;20499;-85
2021/08/22 07:19:13;;;;;;;53.30;37.63;;;18.80;99.90;;;;;;6096039;23;20986;-87
2021/08/22 07:21:44;;;;;;;59.60;53.57;;;18.60;99.90;;;;;;6096811;23;20475;-86
2021/08/22 07:24:11;;;;;;;49.33;45.77;;;18.50;99.90;;;;;;6095689;23;20804;-89
2021/08/22 07:26:41;;;;;;;49.90;46.27;;;18.30;99.90;;;;;;6097118;23;20446;-87
2021/08/22 07:29:11;;;;;;;50.57;47.77;;;18.20;99.90;;;;;;6106823;23;20457;-89
2021/08/22 07:31:38;;;;;;;75.27;71.07;;;18.10;99.90;;;;;;6106431;23;20423;-89
2021/08/22 07:34:05;;;;;;;90.17;84.90;;;18.20;99.90;;;;;;6096591;23;20899;-88
2021/08/22 07:36:34;;;;;;;84.97;80.57;;;18.30;99.90;;;;;;6096990;23;20403;-87
2021/08/22 07:39:02;;;;;;;99.73;94.23;;;18.50;99.90;;;;;;6095762;23;20780;-88
2021/08/22 07:45:00;;;;;;;81.77;76.87;;;19.10;99.90;;;;;;5959309;23;20489;-90
2021/08/22 07:47:27;;;;;;;63.00;59.20;;;19.40;99.90;;;;;;6106673;23;20416;-81
2021/08/22 07:49:56;;;;;;;59.23;55.67;;;19.60;97.70;;;;;;6097310;23;20404;-91
2021/08/22 07:52:24;;;;;;;46.03;43.13;;;19.80;97.70;;;;;;6096481;23;20979;-86
2021/08/22 07:54:51;;;;;;;37.83;35.03;;;20.10;94.70;;;;;;6094996;23;20451;-82
2021/08/22 07:57:18;;;;;;;23.50;21.10;;;20.40;93.60;;;;;;6096222;23;20407;-86
2021/08/22 07:59:45;;;;;;;19.20;16.07;;;20.40;89.30;;;;;;6106331;23;20485;-91
2021/08/22 08:02:12;;;;;;;17.97;15.73;;;20.20;90.00;;;;;;6106057;23;20431;-88
2021/08/22 08:04:39;;;;;;;16.43;14.83;;;19.80;90.00;;;;;;6096128;23;20455;-87
2021/08/22 08:07:06;;;;;;;23.20;20.80;;;19.50;90.30;;;;;;6096553;23;20495;-89
2021/08/22 08:09:35;;;;;;;27.37;24.97;;;19.50;92.10;;;;;;6105041;23;20414;-88
2021/08/22 08:12:01;;;;;;;26.60;24.50;;;19.70;92.20;;;;;;6106189;23;20495;-81
2021/08/22 08:14:28;;;;;;;32.37;30.07;;;20.00;91.70;;;;;;6096632;23;20399;-89
2021/08/22 08:16:55;;;;;;;27.70;25.60;;;20.40;92.10;;;;;;6106084;23;20498;-89
2021/08/22 08:19:22;;;;;;;21.10;19.20;;;20.80;90.50;;;;;;6096982;23;20793;-88
2021/08/22 08:21:49;;;;;;;15.33;12.67;;;20.90;86.90;;;;;;6097389;23;20879;-88
2021/08/22 08:24:23;;;;;;;15.40;12.53;;;20.60;81.50;;;;;;6096447;23;20439;-88
2021/08/22 08:26:53;;;;;;;13.87;12.43;;;20.60;82.90;;;;;;6107598;23;20482;-91
2021/08/22 08:29:20;;;;;;;14.53;12.60;;;20.70;83.30;;;;;;6097887;23;20459;-90
2021/08/22 08:31:52;;;;;;;15.57;13.83;;;20.60;82.60;;;;;;6107262;23;20479;-87
2021/08/22 08:34:21;;;;;;;15.20;13.13;;;20.90;80.70;;;;;;6107371;23;20409;-91
2021/08/22 08:37:24;;;;;;;16.73;13.87;;;21.10;79.20;;;;;;6107513;23;20404;-89
2021/08/22 08:39:54;;;;;;;12.17;10.10;;;21.20;78.30;;;;;;6016878;23;21005;-85
2021/08/22 08:42:25;;;;;;;15.63;9.80;;;21.30;76.00;;;;;;6104884;23;20502;-92
2021/08/22 08:44:54;;;;;;;12.30;9.03;;;21.20;72.80;;;;;;6107084;23;20509;-87
2021/08/22 08:47:23;;;;;;;19.73;9.00;;;21.10;72.30;;;;;;6097762;23;20767;-89
2021/08/22 08:49:54;;;;;;;9.83;8.23;;;21.40;71.40;;;;;;6097705;23;20410;-90
2021/08/22 08:52:25;;;;;;;9.00;8.07;;;22.10;68.50;;;;;;6097601;23;20441;-82
2021/08/22 08:54:53;;;;;;;14.47;6.87;;;22.40;69.50;;;;;;6096359;23;20500;-85
2021/08/22 08:57:20;;;;;;;8.83;6.33;;;22.20;62.60;;;;;;6097575;23;20788;-85
2021/08/22 08:59:48;;;;;;;7.57;5.50;;;22.00;58.90;;;;;;6097598;23;20494;-85
2021/08/22 09:02:15;;;;;;;9.63;5.80;;;22.00;56.30;;;;;;6096554;23;20438;-80
2021/08/22 09:04:45;;;;;;;9.27;5.43;;;22.20;54.70;;;;;;6104019;23;20452;-80
2021/08/22 09:07:49;;;;;;;13.13;4.57;;;22.90;55.90;;;;;;6095547;23;20487;-87
2021/08/22 09:11:07;;;;;;;7.20;4.60;;;23.70;51.70;;;;;;6104528;23;20478;-87
2021/08/22 09:14:21;;;;;;;7.13;4.80;;;23.10;43.00;;;;;;6105528;23;20427;-89
2021/08/22 09:17:25;;;;;;;7.90;5.17;;;22.90;48.80;;;;;;6011487;23;20447;-86
2021/08/22 09:20:28;;;;;;;9.50;5.67;;;23.40;47.50;;;;;;6105306;23;20506;-80
2021/08/22 09:23:32;;;;;;;9.60;5.07;;;24.40;43.90;;;;;;6096127;23;20399;-88
2021/08/22 09:26:36;;;;;;;8.87;4.67;;;25.10;40.00;;;;;;6095908;23;20453;-85
2021/08/22 09:29:40;;;;;;;9.07;6.23;;;24.30;35.90;;;;;;6095939;23;20400;-87
2021/08/22 09:32:46;;;;;;;8.33;5.37;;;23.80;38.80;;;;;;6095822;23;20407;-86
2021/08/22 09:35:50;;;;;;;6.20;4.43;;;24.00;36.40;;;;;;6104148;23;20447;-90
2021/08/22 09:39:05;;;;;;;9.13;5.37;;;23.50;39.90;;;;;;6095876;23;20495;-87
2021/08/22 09:42:17;;;;;;;6.10;4.30;;;23.10;39.50;;;;;;6097546;23;20436;-90
2021/08/22 09:45:19;;;;;;;8.80;5.10;;;23.80;38.80;;;;;;6105177;23;20471;-85
2021/08/22 09:48:22;;;;;;;6.63;4.70;;;24.00;35.50;;;;;;6105314;23;20449;-84
2021/08/22 09:51:35;;;;;;;7.00;4.07;;;23.80;32.50;;;;;;6097138;23;20406;-84
2021/08/22 09:54:46;;;;;;;6.73;4.90;;;23.80;33.70;;;;;;6105465;23;20420;-82
2021/08/22 09:57:50;;;;;;;5.80;3.40;;;24.00;29.90;;;;;;6097492;23;20467;-85
2021/08/22 10:00:55;;;;;;;8.10;3.80;;;23.80;29.80;;;;;;6096776;23;20403;-82
2021/08/22 10:04:07;;;;;;;7.60;4.10;;;23.70;28.60;;;;;;6058090;23;20737;-85
2021/08/22 10:06:52;;;;;;;5.47;3.30;;;23.40;28.50;;;;;;6036686;23;20499;-81
2021/08/22 10:09:20;;;;;;;6.83;3.93;;;23.80;29.30;;;;;;6088739;23;20729;-84
2021/08/22 10:11:52;;;;;;;6.63;2.80;;;23.90;29.50;;;;;;6096860;23;20400;-87
2021/08/22 10:14:20;;;;;;;5.57;2.93;;;24.70;26.20;;;;;;6106786;23;20482;-91
2021/08/22 10:16:49;;;;;;;6.10;3.80;;;25.60;24.30;;;;;;6107550;23;20427;-84
2021/08/22 10:19:16;;;;;;;7.50;3.77;;;25.30;20.20;;;;;;6097823;23;20407;-89
2021/08/22 10:21:43;;;;;;;6.67;2.80;;;25.40;20.20;;;;;;6100207;23;20404;-92
2021/08/22 10:24:44;;;;;;;7.27;3.03;;;25.70;19.30;;;;;;6095624;23;20471;-89
2021/08/22 10:27:14;;;;;;;6.20;3.07;;;25.60;17.60;;;;;;6097477;23;20438;-87
2021/08/22 10:30:08;;;;;;;6.90;2.73;;;25.60;16.10;;;;;;6098467;23;20400;-88
2021/08/22 10:32:55;;;;;;;6.00;2.80;;;25.70;13.10;;;;;;6106288;23;20938;-89
2021/08/22 10:35:49;;;;;;;7.47;3.10;;;26.50;16.70;;;;;;6107485;23;20478;-92
2021/08/22 10:38:23;;;;;;;11.70;3.87;;;26.90;16.10;;;;;;6106764;23;20415;-92
2021/08/22 10:40:52;;;;;;;7.53;3.47;;;26.90;12.00;;;;;;6098466;23;20437;-80
2021/08/22 10:43:31;;;;;;;7.83;3.40;;;26.80;11.30;;;;;;6098797;23;20486;-87
2021/08/22 10:46:00;;;;;;;7.10;3.33;;;25.90;10.40;;;;;;6099323;23;20408;-87
2021/08/22 10:48:46;;;;;;;6.17;2.87;;;24.90;11.50;;;;;;6098431;23;20463;-88
2021/08/22 10:51:13;;;;;;;6.60;3.43;;;25.10;15.60;;;;;;6098690;23;20463;-86
2021/08/22 10:53:43;;;;;;;9.70;3.40;;;25.50;13.90;;;;;;6106717;23;20441;-88
2021/08/22 10:56:39;;;;;;;6.77;3.03;;;26.00;12.70;;;;;;6098800;23;20400;-90
2021/08/22 10:59:09;;;;;;;7.87;2.93;;;26.50;10.30;;;;;;6098868;23;20379;-88
2021/08/22 11:01:45;;;;;;;6.80;2.73;;;26.80;10.70;;;;;;6098400;23;20959;-81
2021/08/22 11:04:21;;;;;;;7.20;3.70;;;27.00;9.20;;;;;;6098426;23;20538;-93
2021/08/22 11:07:25;;;;;;;5.90;2.87;;;26.30;8.80;;;;;;6108692;23;20441;-94
2021/08/22 11:09:52;;;;;;;7.80;2.30;;;25.60;8.60;;;;;;6097835;23;20427;-92
2021/08/22 11:12:26;;;;;;;8.70;3.50;;;25.80;10.10;;;;;;6108236;23;20426;-87
2021/08/22 11:14:53;;;;;;;10.27;3.67;;;26.00;9.80;;;;;;6107965;23;20442;-87
2021/08/22 11:17:20;;;;;;;6.37;3.07;;;26.20;11.80;;;;;;6098473;23;20526;-87
2021/08/22 11:19:47;;;;;;;8.03;2.70;;;26.80;9.80;;;;;;6098651;23;20382;-87
2021/08/22 11:22:24;;;;;;;9.07;3.27;;;26.90;9.20;;;;;;6108320;23;20486;-83
2021/08/22 11:24:52;;;;;;;6.57;2.53;;;26.50;8.30;;;;;;6096886;23;20438;-79
2021/08/22 11:27:21;;;;;;;11.37;3.30;;;26.20;8.80;;;;;;6098648;23;20731;-79
2021/08/22 11:29:57;;;;;;;7.23;3.23;;;25.90;8.60;;;;;;6098422;23;20411;-79
2021/08/22 11:32:25;;;;;;;4.97;2.60;;;26.50;9.40;;;;;;6098231;23;20374;-78
2021/08/22 11:34:52;;;;;;;6.50;3.37;;;26.40;8.90;;;;;;6107887;23;20987;-80
2021/08/22 11:37:21;;;;;;;7.10;3.33;;;26.90;9.20;;;;;;6098364;23;20439;-79
2021/08/22 11:39:49;;;;;;;7.40;2.77;;;26.80;8.90;;;;;;6106506;23;20487;-80
2021/08/22 11:42:21;;;;;;;6.90;2.63;;;26.40;8.90;;;;;;6098104;23;20374;-78
2021/08/22 11:44:48;;;;;;;4.87;2.50;;;26.50;7.30;;;;;;6098244;23;20522;-79
2021/08/22 11:47:17;;;;;;;5.80;2.70;;;27.40;9.40;;;;;;6098379;23;20404;-80
2021/08/22 11:49:44;;;;;;;5.63;2.90;;;27.70;5.80;;;;;;6098364;23;20410;-79
2021/08/22 11:52:12;;;;;;;9.03;3.07;;;27.10;5.60;;;;;;6098251;23;20436;-80
2021/08/22 11:54:39;;;;;;;6.20;2.90;;;27.10;5.80;;;;;;6096487;23;20412;-81
2021/08/22 11:57:20;;;;;;;7.33;3.27;;;27.20;4.70;;;;;;6098345;23;20495;-92
2021/08/22 12:00:01;;;;;;;8.07;3.30;;;27.60;6.60;;;;;;6107592;23;20531;-88
2021/08/22 12:02:29;;;;;;;4.87;2.20;;;28.00;3.50;;;;;;6097976;23;20436;-90
2021/08/22 12:05:20;;;;;;;5.83;2.73;;;29.20;6.40;;;;;;6097707;23;20538;-83
2021/08/22 12:07:51;;;;;;;9.07;3.20;;;27.90;3.20;;;;;;6098001;23;20463;-84
2021/08/22 12:10:34;;;;;;;7.33;2.53;;;27.20;5.00;;;;;;6106506;23;20468;-83
2021/08/22 12:13:04;;;;;;;5.70;2.37;;;26.90;7.50;;;;;;6107227;23;20382;-83
2021/08/22 12:15:33;;;;;;;9.43;2.80;;;25.70;8.50;;;;;;6097938;23;20408;-82
2021/08/22 12:18:35;;;;;;;6.80;2.77;;;25.00;11.20;;;;;;6097874;23;20494;-81
2021/08/22 12:21:21;;;;;;;8.23;3.40;;;24.70;15.60;;;;;;6097835;23;20454;-81
2021/08/22 12:23:50;;;;;;;8.27;2.93;;;24.30;16.30;;;;;;6096342;23;20415;-81
2021/08/22 12:26:25;;;;;;;5.57;2.40;;;24.00;17.20;;;;;;6097839;23;20715;-81
2021/08/22 12:28:55;;;;;;;6.47;2.40;;;23.20;17.00;;;;;;6107596;23;20411;-84
2021/08/22 12:31:33;;;;;;;8.57;2.90;;;23.00;18.50;;;;;;6097708;23;20407;-84
2021/08/22 12:34:07;;;;;;;9.03;2.90;;;23.40;18.40;;;;;;6102318;23;20423;-83
2021/08/22 12:36:35;;;;;;;9.43;3.30;;;23.80;18.70;;;;;;6097780;23;20407;-83
2021/08/22 12:39:09;;;;;;;9.87;2.87;;;24.00;18.20;;;;;;6106264;23;20407;-83
2021/08/22 12:41:43;;;;;;;7.50;3.17;;;24.10;19.00;;;;;;6097362;23;20885;-83
2021/08/22 12:44:12;;;;;;;5.80;2.90;;;24.10;18.00;;;;;;6097447;23;20462;-79
2021/08/22 12:46:40;;;;;;;5.07;1.97;;;24.20;18.90;;;;;;6097823;23;20416;-80
2021/08/22 12:49:09;;;;;;;5.70;1.83;;;24.50;18.90;;;;;;6107267;23;20880;-81
2021/08/22 12:51:37;;;;;;;4.90;1.33;;;25.70;15.70;;;;;;6107269;23;20494;-81